sensor_id;sensor_type;location;lat;lon;timestamp;P1;durP1;ratioP1;P2;durP2;ratioP2
21769;SDS011;11046;49.558;8.674;2023-12-28T00:02:37;10.13;;;5.27;;
21769;SDS011;11046;49.558;8.674;2023-12-28T00:05:47;10.10;;;4.47;;
21769;SDS011;11046;49.558;8.674;2023-12-28T00:08:50;11.97;;;5.87;;
21769;SDS011;11046;49.558;8.674;2023-12-28T00:11:51;16.77;;;6.73;;
21769;SDS011;11046;49.558;8.674;2023-12-28T00:14:54;10.57;;;5.60;;
21769;SDS011;11046;49.558;8.674;2023-12-28T00:17:55;10.60;;;5.27;;
21769;SDS011;11046;49.558;8.674;2023-12-28T00:20:58;9.30;;;4.90;;
21769;SDS011;11046;49.558;8.674;2023-12-28T00:24:00;10.60;;;5.40;;
21769;SDS011;11046;49.558;8.674;2023-12-28T00:27:01;8.67;;;5.27;;
21769;SDS011;11046;49.558;8.674;2023-12-28T00:30:02;15.53;;;5.80;;
21769;SDS011;11046;49.558;8.674;2023-12-28T00:33:05;10.80;;;5.27;;
21769;SDS011;11046;49.558;8.674;2023-12-28T00:36:07;10.97;;;5.23;;
21769;SDS011;11046;49.558;8.674;2023-12-28T00:39:19;10.17;;;5.40;;
21769;SDS011;11046;49.558;8.674;2023-12-28T00:42:20;13.13;;;5.60;;
21769;SDS011;11046;49.558;8.674;2023-12-28T00:45:21;8.40;;;4.57;;
21769;SDS011;11046;49.558;8.674;2023-12-28T00:48:24;7.03;;;4.33;;
21769;SDS011;11046;49.558;8.674;2023-12-28T00:51:25;11.77;;;4.63;;
21769;SDS011;11046;49.558;8.674;2023-12-28T00:54:33;9.00;;;5.20;;
21769;SDS011;11046;49.558;8.674;2023-12-28T00:57:39;8.47;;;4.37;;
21769;SDS011;11046;49.558;8.674;2023-12-28T01:00:43;9.47;;;5.23;;
21769;SDS011;11046;49.558;8.674;2023-12-28T01:03:49;9.63;;;5.47;;
21769;SDS011;11046;49.558;8.674;2023-12-28T01:06:54;8.60;;;5.07;;
21769;SDS011;11046;49.558;8.674;2023-12-28T01:09:57;9.73;;;4.67;;
21769;SDS011;11046;49.558;8.674;2023-12-28T01:13:00;8.67;;;4.57;;
21769;SDS011;11046;49.558;8.674;2023-12-28T01:16:01;10.80;;;5.03;;
21769;SDS011;11046;49.558;8.674;2023-12-28T01:19:07;11.57;;;5.27;;
21769;SDS011;11046;49.558;8.674;2023-12-28T01:22:08;7.83;;;4.77;;
21769;SDS011;11046;49.558;8.674;2023-12-28T01:25:09;8.30;;;4.67;;
21769;SDS011;11046;49.558;8.674;2023-12-28T01:28:12;11.67;;;5.60;;
21769;SDS011;11046;49.558;8.674;2023-12-28T01:31:13;8.77;;;5.27;;
21769;SDS011;11046;49.558;8.674;2023-12-28T01:34:17;10.03;;;5.00;;
21769;SDS011;11046;49.558;8.674;2023-12-28T01:37:18;11.00;;;4.73;;
21769;SDS011;11046;49.558;8.674;2023-12-28T01:40:19;10.67;;;5.07;;
21769;SDS011;11046;49.558;8.674;2023-12-28T01:43:19;8.83;;;5.13;;
21769;SDS011;11046;49.558;8.674;2023-12-28T01:46:20;11.83;;;5.40;;
21769;SDS011;11046;49.558;8.674;2023-12-28T01:49:22;8.20;;;4.87;;
21769;SDS011;11046;49.558;8.674;2023-12-28T01:52:23;9.23;;;5.00;;
21769;SDS011;11046;49.558;8.674;2023-12-28T01:55:26;8.27;;;4.70;;
21769;SDS011;11046;49.558;8.674;2023-12-28T01:58:32;10.33;;;4.90;;
21769;SDS011;11046;49.558;8.674;2023-12-28T02:01:35;8.97;;;4.70;;
21769;SDS011;11046;49.558;8.674;2023-12-28T02:04:41;6.83;;;4.33;;
21769;SDS011;11046;49.558;8.674;2023-12-28T02:07:42;11.93;;;5.50;;
21769;SDS011;11046;49.558;8.674;2023-12-28T02:10:43;7.93;;;4.70;;
21769;SDS011;11046;49.558;8.674;2023-12-28T02:13:44;9.87;;;5.00;;
21769;SDS011;11046;49.558;8.674;2023-12-28T02:17:11;7.17;;;4.53;;
21769;SDS011;11046;49.558;8.674;2023-12-28T02:20:15;8.40;;;4.57;;
21769;SDS011;11046;49.558;8.674;2023-12-28T02:23:24;13.93;;;5.13;;
21769;SDS011;11046;49.558;8.674;2023-12-28T02:26:27;6.87;;;4.03;;
21769;SDS011;11046;49.558;8.674;2023-12-28T02:29:29;7.87;;;4.23;;
21769;SDS011;11046;49.558;8.674;2023-12-28T02:33:19;9.23;;;4.90;;
21769;SDS011;11046;49.558;8.674;2023-12-28T02:36:12;8.23;;;4.70;;
21769;SDS011;11046;49.558;8.674;2023-12-28T02:39:24;8.40;;;4.57;;
21769;SDS011;11046;49.558;8.674;2023-12-28T02:42:31;7.37;;;4.43;;
21769;SDS011;11046;49.558;8.674;2023-12-28T02:45:34;7.67;;;4.03;;
21769;SDS011;11046;49.558;8.674;2023-12-28T02:48:38;6.53;;;4.00;;
21769;SDS011;11046;49.558;8.674;2023-12-28T02:51:42;7.70;;;3.93;;
21769;SDS011;11046;49.558;8.674;2023-12-28T02:54:44;9.03;;;3.93;;
21769;SDS011;11046;49.558;8.674;2023-12-28T02:57:48;9.53;;;4.40;;
21769;SDS011;11046;49.558;8.674;2023-12-28T03:01:00;7.03;;;4.10;;
21769;SDS011;11046;49.558;8.674;2023-12-28T03:04:01;6.70;;;4.10;;
21769;SDS011;11046;49.558;8.674;2023-12-28T03:07:02;6.20;;;3.97;;
21769;SDS011;11046;49.558;8.674;2023-12-28T03:10:11;7.40;;;3.90;;
21769;SDS011;11046;49.558;8.674;2023-12-28T03:13:12;6.00;;;3.73;;
21769;SDS011;11046;49.558;8.674;2023-12-28T03:16:13;7.90;;;3.80;;
21769;SDS011;11046;49.558;8.674;2023-12-28T03:19:14;5.60;;;3.60;;
21769;SDS011;11046;49.558;8.674;2023-12-28T03:22:15;6.87;;;3.83;;
21769;SDS011;11046;49.558;8.674;2023-12-28T03:25:20;6.50;;;3.80;;
21769;SDS011;11046;49.558;8.674;2023-12-28T03:28:27;6.10;;;3.80;;
21769;SDS011;11046;49.558;8.674;2023-12-28T03:31:27;7.67;;;4.10;;
21769;SDS011;11046;49.558;8.674;2023-12-28T03:34:29;6.93;;;3.87;;
21769;SDS011;11046;49.558;8.674;2023-12-28T03:37:31;6.67;;;3.90;;
21769;SDS011;11046;49.558;8.674;2023-12-28T03:40:32;8.30;;;3.63;;
21769;SDS011;11046;49.558;8.674;2023-12-28T03:43:33;7.40;;;3.97;;
21769;SDS011;11046;49.558;8.674;2023-12-28T03:46:33;6.53;;;3.87;;
21769;SDS011;11046;49.558;8.674;2023-12-28T03:49:34;6.20;;;3.60;;
21769;SDS011;11046;49.558;8.674;2023-12-28T03:52:46;11.23;;;3.77;;
21769;SDS011;11046;49.558;8.674;2023-12-28T03:55:47;7.57;;;3.60;;
21769;SDS011;11046;49.558;8.674;2023-12-28T03:58:47;6.27;;;3.53;;
21769;SDS011;11046;49.558;8.674;2023-12-28T04:01:48;5.00;;;3.27;;
21769;SDS011;11046;49.558;8.674;2023-12-28T04:04:51;5.50;;;3.27;;
21769;SDS011;11046;49.558;8.674;2023-12-28T04:07:52;7.27;;;3.87;;
21769;SDS011;11046;49.558;8.674;2023-12-28T04:10:56;6.33;;;3.80;;
21769;SDS011;11046;49.558;8.674;2023-12-28T04:13:57;5.03;;;3.33;;
21769;SDS011;11046;49.558;8.674;2023-12-28T04:16:58;5.73;;;3.43;;
21769;SDS011;11046;49.558;8.674;2023-12-28T04:19:59;5.90;;;3.33;;
21769;SDS011;11046;49.558;8.674;2023-12-28T04:22:59;6.43;;;3.40;;
21769;SDS011;11046;49.558;8.674;2023-12-28T04:26:00;6.30;;;3.83;;
21769;SDS011;11046;49.558;8.674;2023-12-28T04:29:03;5.47;;;3.37;;
21769;SDS011;11046;49.558;8.674;2023-12-28T04:32:04;6.83;;;3.20;;
21769;SDS011;11046;49.558;8.674;2023-12-28T04:35:05;5.83;;;3.30;;
21769;SDS011;11046;49.558;8.674;2023-12-28T04:38:09;6.63;;;3.43;;
21769;SDS011;11046;49.558;8.674;2023-12-28T04:41:12;5.40;;;3.10;;
21769;SDS011;11046;49.558;8.674;2023-12-28T04:44:16;5.20;;;3.03;;
21769;SDS011;11046;49.558;8.674;2023-12-28T04:47:20;8.40;;;3.53;;
21769;SDS011;11046;49.558;8.674;2023-12-28T04:50:20;7.13;;;4.43;;
21769;SDS011;11046;49.558;8.674;2023-12-28T04:53:23;6.70;;;3.20;;
21769;SDS011;11046;49.558;8.674;2023-12-28T04:56:24;5.67;;;3.30;;
21769;SDS011;11046;49.558;8.674;2023-12-28T04:59:25;4.57;;;3.30;;
21769;SDS011;11046;49.558;8.674;2023-12-28T05:02:26;4.83;;;3.10;;
21769;SDS011;11046;49.558;8.674;2023-12-28T05:05:28;6.53;;;3.13;;
21769;SDS011;11046;49.558;8.674;2023-12-28T05:08:28;6.20;;;3.00;;
21769;SDS011;11046;49.558;8.674;2023-12-28T05:11:29;5.23;;;3.10;;
21769;SDS011;11046;49.558;8.674;2023-12-28T05:14:33;5.40;;;3.10;;
21769;SDS011;11046;49.558;8.674;2023-12-28T05:17:33;4.87;;;3.00;;
21769;SDS011;11046;49.558;8.674;2023-12-28T05:20:34;4.70;;;2.80;;
21769;SDS011;11046;49.558;8.674;2023-12-28T05:23:38;5.43;;;2.97;;
21769;SDS011;11046;49.558;8.674;2023-12-28T05:26:38;5.37;;;3.20;;
21769;SDS011;11046;49.558;8.674;2023-12-28T05:29:42;5.97;;;3.17;;
21769;SDS011;11046;49.558;8.674;2023-12-28T05:32:42;7.40;;;2.90;;
21769;SDS011;11046;49.558;8.674;2023-12-28T05:35:43;4.47;;;2.80;;
21769;SDS011;11046;49.558;8.674;2023-12-28T05:38:44;3.57;;;2.60;;
21769;SDS011;11046;49.558;8.674;2023-12-28T05:41:44;6.10;;;3.10;;
21769;SDS011;11046;49.558;8.674;2023-12-28T05:44:47;5.10;;;3.03;;
21769;SDS011;11046;49.558;8.674;2023-12-28T05:47:48;4.30;;;2.70;;
21769;SDS011;11046;49.558;8.674;2023-12-28T05:50:49;5.87;;;2.50;;
21769;SDS011;11046;49.558;8.674;2023-12-28T05:53:49;5.60;;;2.60;;
21769;SDS011;11046;49.558;8.674;2023-12-28T05:56:51;5.10;;;2.97;;
21769;SDS011;11046;49.558;8.674;2023-12-28T05:59:53;6.63;;;2.67;;
21769;SDS011;11046;49.558;8.674;2023-12-28T06:02:54;6.27;;;2.63;;
21769;SDS011;11046;49.558;8.674;2023-12-28T06:05:55;4.90;;;3.10;;
21769;SDS011;11046;49.558;8.674;2023-12-28T06:08:58;6.00;;;2.57;;
21769;SDS011;11046;49.558;8.674;2023-12-28T06:11:59;6.07;;;3.03;;
21769;SDS011;11046;49.558;8.674;2023-12-28T06:15:00;6.93;;;3.10;;
21769;SDS011;11046;49.558;8.674;2023-12-28T06:18:01;6.20;;;3.00;;
21769;SDS011;11046;49.558;8.674;2023-12-28T06:21:03;5.70;;;3.17;;
21769;SDS011;11046;49.558;8.674;2023-12-28T06:24:08;6.90;;;2.67;;
21769;SDS011;11046;49.558;8.674;2023-12-28T06:27:09;7.90;;;3.57;;
21769;SDS011;11046;49.558;8.674;2023-12-28T06:30:12;7.23;;;3.57;;
21769;SDS011;11046;49.558;8.674;2023-12-28T06:33:13;6.43;;;3.17;;
21769;SDS011;11046;49.558;8.674;2023-12-28T06:36:17;9.00;;;3.13;;
21769;SDS011;11046;49.558;8.674;2023-12-28T06:39:19;7.33;;;2.97;;
21769;SDS011;11046;49.558;8.674;2023-12-28T06:42:19;6.73;;;2.90;;
21769;SDS011;11046;49.558;8.674;2023-12-28T06:45:20;4.70;;;3.00;;
21769;SDS011;11046;49.558;8.674;2023-12-28T06:48:29;7.67;;;4.20;;
21769;SDS011;11046;49.558;8.674;2023-12-28T06:51:32;5.63;;;3.07;;
21769;SDS011;11046;49.558;8.674;2023-12-28T06:54:33;5.63;;;2.80;;
21769;SDS011;11046;49.558;8.674;2023-12-28T06:57:36;5.23;;;2.87;;
21769;SDS011;11046;49.558;8.674;2023-12-28T07:00:37;6.70;;;2.80;;
21769;SDS011;11046;49.558;8.674;2023-12-28T07:03:37;4.43;;;3.00;;
21769;SDS011;11046;49.558;8.674;2023-12-28T07:06:38;3.90;;;2.70;;
21769;SDS011;11046;49.558;8.674;2023-12-28T07:09:39;6.83;;;2.83;;
21769;SDS011;11046;49.558;8.674;2023-12-28T07:12:43;4.37;;;2.53;;
21769;SDS011;11046;49.558;8.674;2023-12-28T07:15:47;4.43;;;2.80;;
21769;SDS011;11046;49.558;8.674;2023-12-28T07:18:47;4.23;;;2.70;;
21769;SDS011;11046;49.558;8.674;2023-12-28T07:21:48;5.17;;;2.70;;
21769;SDS011;11046;49.558;8.674;2023-12-28T07:24:52;6.37;;;2.70;;
21769;SDS011;11046;49.558;8.674;2023-12-28T07:27:52;3.97;;;2.80;;
21769;SDS011;11046;49.558;8.674;2023-12-28T07:30:59;8.43;;;3.03;;
21769;SDS011;11046;49.558;8.674;2023-12-28T07:34:00;7.77;;;2.97;;
21769;SDS011;11046;49.558;8.674;2023-12-28T07:37:00;4.77;;;2.90;;
21769;SDS011;11046;49.558;8.674;2023-12-28T07:40:03;7.93;;;3.30;;
21769;SDS011;11046;49.558;8.674;2023-12-28T07:43:14;6.60;;;2.80;;
21769;SDS011;11046;49.558;8.674;2023-12-28T07:46:17;4.43;;;2.53;;
21769;SDS011;11046;49.558;8.674;2023-12-28T07:49:25;6.00;;;2.70;;
21769;SDS011;11046;49.558;8.674;2023-12-28T07:52:39;5.37;;;2.90;;
21769;SDS011;11046;49.558;8.674;2023-12-28T07:55:40;4.63;;;2.70;;
21769;SDS011;11046;49.558;8.674;2023-12-28T07:58:43;4.90;;;2.77;;
21769;SDS011;11046;49.558;8.674;2023-12-28T08:01:44;5.87;;;2.97;;
21769;SDS011;11046;49.558;8.674;2023-12-28T08:04:45;7.67;;;2.47;;
21769;SDS011;11046;49.558;8.674;2023-12-28T08:07:46;5.40;;;2.90;;
21769;SDS011;11046;49.558;8.674;2023-12-28T08:10:53;4.90;;;2.73;;
21769;SDS011;11046;49.558;8.674;2023-12-28T08:13:56;6.63;;;3.50;;
21769;SDS011;11046;49.558;8.674;2023-12-28T08:17:00;6.97;;;3.00;;
21769;SDS011;11046;49.558;8.674;2023-12-28T08:20:06;5.37;;;2.90;;
21769;SDS011;11046;49.558;8.674;2023-12-28T08:23:07;4.87;;;3.10;;
21769;SDS011;11046;49.558;8.674;2023-12-28T08:26:08;4.37;;;2.80;;
21769;SDS011;11046;49.558;8.674;2023-12-28T08:29:10;5.80;;;2.87;;
21769;SDS011;11046;49.558;8.674;2023-12-28T08:32:19;8.40;;;3.20;;
21769;SDS011;11046;49.558;8.674;2023-12-28T08:35:19;5.23;;;3.83;;
21769;SDS011;11046;49.558;8.674;2023-12-28T08:38:31;6.57;;;2.80;;
21769;SDS011;11046;49.558;8.674;2023-12-28T08:41:31;6.87;;;3.30;;
21769;SDS011;11046;49.558;8.674;2023-12-28T08:44:37;6.30;;;3.30;;
21769;SDS011;11046;49.558;8.674;2023-12-28T08:47:40;5.47;;;3.03;;
21769;SDS011;11046;49.558;8.674;2023-12-28T08:50:43;6.57;;;3.17;;
21769;SDS011;11046;49.558;8.674;2023-12-28T08:53:43;6.40;;;3.50;;
21769;SDS011;11046;49.558;8.674;2023-12-28T08:56:44;6.73;;;3.80;;
21769;SDS011;11046;49.558;8.674;2023-12-28T08:59:45;7.13;;;3.40;;
21769;SDS011;11046;49.558;8.674;2023-12-28T09:02:45;6.53;;;3.20;;
21769;SDS011;11046;49.558;8.674;2023-12-28T09:05:53;6.47;;;3.07;;
21769;SDS011;11046;49.558;8.674;2023-12-28T09:08:54;6.53;;;3.40;;
21769;SDS011;11046;49.558;8.674;2023-12-28T09:11:54;5.67;;;3.17;;
21769;SDS011;11046;49.558;8.674;2023-12-28T09:14:55;5.43;;;3.10;;
21769;SDS011;11046;49.558;8.674;2023-12-28T09:17:56;6.33;;;3.50;;
21769;SDS011;11046;49.558;8.674;2023-12-28T09:20:56;8.17;;;3.53;;
21769;SDS011;11046;49.558;8.674;2023-12-28T09:23:57;5.23;;;3.30;;
21769;SDS011;11046;49.558;8.674;2023-12-28T09:27:03;3.97;;;3.07;;
21769;SDS011;11046;49.558;8.674;2023-12-28T09:30:04;8.13;;;3.03;;
21769;SDS011;11046;49.558;8.674;2023-12-28T09:33:05;4.70;;;3.03;;
21769;SDS011;11046;49.558;8.674;2023-12-28T09:36:06;4.20;;;3.10;;
21769;SDS011;11046;49.558;8.674;2023-12-28T09:39:10;5.10;;;3.10;;
21769;SDS011;11046;49.558;8.674;2023-12-28T09:42:17;6.10;;;2.80;;
21769;SDS011;11046;49.558;8.674;2023-12-28T09:45:25;7.13;;;4.20;;
21769;SDS011;11046;49.558;8.674;2023-12-28T09:48:25;4.93;;;2.80;;
21769;SDS011;11046;49.558;8.674;2023-12-28T09:51:30;6.07;;;2.90;;
21769;SDS011;11046;49.558;8.674;2023-12-28T09:54:31;5.30;;;3.00;;
21769;SDS011;11046;49.558;8.674;2023-12-28T09:57:32;6.47;;;3.30;;
21769;SDS011;11046;49.558;8.674;2023-12-28T10:00:37;5.90;;;2.83;;
21769;SDS011;11046;49.558;8.674;2023-12-28T10:03:44;3.97;;;2.80;;
21769;SDS011;11046;49.558;8.674;2023-12-28T10:06:44;4.67;;;2.83;;
21769;SDS011;11046;49.558;8.674;2023-12-28T10:09:45;4.57;;;2.93;;
21769;SDS011;11046;49.558;8.674;2023-12-28T10:12:46;7.47;;;3.10;;
21769;SDS011;11046;49.558;8.674;2023-12-28T10:15:47;5.93;;;3.13;;
21769;SDS011;11046;49.558;8.674;2023-12-28T10:18:49;9.33;;;3.67;;
21769;SDS011;11046;49.558;8.674;2023-12-28T10:21:50;14.30;;;4.20;;
21769;SDS011;11046;49.558;8.674;2023-12-28T10:24:52;5.90;;;3.53;;
21769;SDS011;11046;49.558;8.674;2023-12-28T10:27:53;5.97;;;2.97;;
21769;SDS011;11046;49.558;8.674;2023-12-28T10:30:54;7.73;;;3.50;;
21769;SDS011;11046;49.558;8.674;2023-12-28T10:34:00;10.67;;;3.20;;
21769;SDS011;11046;49.558;8.674;2023-12-28T10:37:10;9.23;;;3.43;;
21769;SDS011;11046;49.558;8.674;2023-12-28T10:40:12;5.80;;;3.20;;
21769;SDS011;11046;49.558;8.674;2023-12-28T10:43:17;6.30;;;3.53;;
21769;SDS011;11046;49.558;8.674;2023-12-28T10:46:27;4.73;;;3.27;;
21769;SDS011;11046;49.558;8.674;2023-12-28T10:49:33;5.40;;;2.70;;
21769;SDS011;11046;49.558;8.674;2023-12-28T10:52:40;4.83;;;2.70;;
21769;SDS011;11046;49.558;8.674;2023-12-28T10:56:12;5.20;;;2.80;;
21769;SDS011;11046;49.558;8.674;2023-12-28T10:59:21;4.73;;;2.90;;
21769;SDS011;11046;49.558;8.674;2023-12-28T11:02:36;8.47;;;3.00;;
21769;SDS011;11046;49.558;8.674;2023-12-28T11:05:42;5.57;;;2.70;;
21769;SDS011;11046;49.558;8.674;2023-12-28T11:08:45;5.63;;;2.70;;
21769;SDS011;11046;49.558;8.674;2023-12-28T11:11:50;4.80;;;2.93;;
21769;SDS011;11046;49.558;8.674;2023-12-28T11:14:53;4.77;;;2.80;;
21769;SDS011;11046;49.558;8.674;2023-12-28T11:17:55;6.70;;;3.30;;
21769;SDS011;11046;49.558;8.674;2023-12-28T11:20:56;4.43;;;2.80;;
21769;SDS011;11046;49.558;8.674;2023-12-28T11:23:57;3.67;;;2.60;;
21769;SDS011;11046;49.558;8.674;2023-12-28T11:26:58;5.97;;;3.20;;
21769;SDS011;11046;49.558;8.674;2023-12-28T11:29:59;5.50;;;2.97;;
21769;SDS011;11046;49.558;8.674;2023-12-28T11:33:00;5.40;;;3.27;;
21769;SDS011;11046;49.558;8.674;2023-12-28T11:36:00;6.03;;;2.90;;
21769;SDS011;11046;49.558;8.674;2023-12-28T11:39:03;8.70;;;3.50;;
21769;SDS011;11046;49.558;8.674;2023-12-28T11:42:07;7.90;;;3.97;;
21769;SDS011;11046;49.558;8.674;2023-12-28T11:45:11;8.17;;;3.70;;
21769;SDS011;11046;49.558;8.674;2023-12-28T11:48:11;4.07;;;2.90;;
21769;SDS011;11046;49.558;8.674;2023-12-28T11:51:26;6.23;;;3.23;;
21769;SDS011;11046;49.558;8.674;2023-12-28T11:54:27;5.97;;;3.10;;
21769;SDS011;11046;49.558;8.674;2023-12-28T11:57:28;5.53;;;3.10;;
21769;SDS011;11046;49.558;8.674;2023-12-28T12:00:29;6.43;;;2.90;;
21769;SDS011;11046;49.558;8.674;2023-12-28T12:03:30;8.53;;;3.10;;
21769;SDS011;11046;49.558;8.674;2023-12-28T12:06:30;7.10;;;3.63;;
21769;SDS011;11046;49.558;8.674;2023-12-28T12:09:31;7.63;;;3.40;;
21769;SDS011;11046;49.558;8.674;2023-12-28T12:12:34;7.43;;;3.30;;
21769;SDS011;11046;49.558;8.674;2023-12-28T12:15:35;8.00;;;3.50;;
21769;SDS011;11046;49.558;8.674;2023-12-28T12:18:36;4.20;;;2.90;;
21769;SDS011;11046;49.558;8.674;2023-12-28T12:21:37;6.40;;;3.27;;
21769;SDS011;11046;49.558;8.674;2023-12-28T12:24:44;5.47;;;2.90;;
21769;SDS011;11046;49.558;8.674;2023-12-28T12:28:03;5.80;;;3.00;;
21769;SDS011;11046;49.558;8.674;2023-12-28T12:31:05;6.37;;;3.00;;
21769;SDS011;11046;49.558;8.674;2023-12-28T12:34:17;6.23;;;3.73;;
21769;SDS011;11046;49.558;8.674;2023-12-28T12:37:20;5.93;;;3.60;;
21769;SDS011;11046;49.558;8.674;2023-12-28T12:40:21;10.70;;;4.17;;
21769;SDS011;11046;49.558;8.674;2023-12-28T12:43:24;11.40;;;4.43;;
21769;SDS011;11046;49.558;8.674;2023-12-28T12:46:31;5.87;;;3.70;;
21769;SDS011;11046;49.558;8.674;2023-12-28T12:49:42;7.73;;;3.97;;
21769;SDS011;11046;49.558;8.674;2023-12-28T12:52:44;6.90;;;4.10;;
21769;SDS011;11046;49.558;8.674;2023-12-28T12:55:48;7.13;;;4.23;;
21769;SDS011;11046;49.558;8.674;2023-12-28T12:58:54;5.83;;;3.83;;
21769;SDS011;11046;49.558;8.674;2023-12-28T13:01:55;6.07;;;3.73;;
21769;SDS011;11046;49.558;8.674;2023-12-28T13:04:56;6.33;;;3.17;;
21769;SDS011;11046;49.558;8.674;2023-12-28T13:08:00;7.20;;;3.50;;
21769;SDS011;11046;49.558;8.674;2023-12-28T13:11:00;8.27;;;4.30;;
21769;SDS011;11046;49.558;8.674;2023-12-28T13:14:07;6.70;;;3.90;;
21769;SDS011;11046;49.558;8.674;2023-12-28T13:17:08;6.93;;;4.00;;
21769;SDS011;11046;49.558;8.674;2023-12-28T13:20:09;8.03;;;3.47;;
21769;SDS011;11046;49.558;8.674;2023-12-28T13:23:10;6.93;;;3.60;;
21769;SDS011;11046;49.558;8.674;2023-12-28T13:26:10;7.20;;;3.80;;
21769;SDS011;11046;49.558;8.674;2023-12-28T13:29:11;6.40;;;3.67;;
21769;SDS011;11046;49.558;8.674;2023-12-28T13:32:13;6.57;;;3.10;;
21769;SDS011;11046;49.558;8.674;2023-12-28T13:35:14;5.57;;;3.67;;
21769;SDS011;11046;49.558;8.674;2023-12-28T13:38:15;5.37;;;3.40;;
21769;SDS011;11046;49.558;8.674;2023-12-28T13:41:15;4.50;;;3.17;;
21769;SDS011;11046;49.558;8.674;2023-12-28T13:44:18;6.07;;;3.30;;
21769;SDS011;11046;49.558;8.674;2023-12-28T13:47:19;4.70;;;3.37;;
21769;SDS011;11046;49.558;8.674;2023-12-28T13:50:19;5.67;;;3.60;;
21769;SDS011;11046;49.558;8.674;2023-12-28T13:53:20;5.33;;;3.63;;
21769;SDS011;11046;49.558;8.674;2023-12-28T13:56:21;5.77;;;3.77;;
21769;SDS011;11046;49.558;8.674;2023-12-28T13:59:21;8.67;;;4.83;;
21769;SDS011;11046;49.558;8.674;2023-12-28T14:02:22;7.10;;;4.30;;
21769;SDS011;11046;49.558;8.674;2023-12-28T14:05:22;6.00;;;3.60;;
21769;SDS011;11046;49.558;8.674;2023-12-28T14:08:24;6.87;;;3.97;;
21769;SDS011;11046;49.558;8.674;2023-12-28T14:11:25;6.53;;;4.20;;
21769;SDS011;11046;49.558;8.674;2023-12-28T14:14:26;6.30;;;4.00;;
21769;SDS011;11046;49.558;8.674;2023-12-28T14:17:28;6.10;;;3.97;;
21769;SDS011;11046;49.558;8.674;2023-12-28T14:20:34;6.63;;;3.77;;
21769;SDS011;11046;49.558;8.674;2023-12-28T14:23:35;6.80;;;3.67;;
21769;SDS011;11046;49.558;8.674;2023-12-28T14:26:40;5.67;;;3.97;;
21769;SDS011;11046;49.558;8.674;2023-12-28T14:29:48;8.90;;;4.10;;
21769;SDS011;11046;49.558;8.674;2023-12-28T14:32:51;10.20;;;4.60;;
21769;SDS011;11046;49.558;8.674;2023-12-28T14:35:52;10.90;;;4.70;;
21769;SDS011;11046;49.558;8.674;2023-12-28T14:38:55;8.60;;;5.33;;
21769;SDS011;11046;49.558;8.674;2023-12-28T14:41:56;11.87;;;5.30;;
21769;SDS011;11046;49.558;8.674;2023-12-28T14:45:04;8.73;;;4.83;;
21769;SDS011;11046;49.558;8.674;2023-12-28T14:48:13;9.37;;;5.37;;
21769;SDS011;11046;49.558;8.674;2023-12-28T14:51:14;10.50;;;5.43;;
21769;SDS011;11046;49.558;8.674;2023-12-28T14:54:15;8.47;;;4.63;;
21769;SDS011;11046;49.558;8.674;2023-12-28T14:57:15;11.27;;;5.00;;
21769;SDS011;11046;49.558;8.674;2023-12-28T15:00:16;8.30;;;4.97;;
21769;SDS011;11046;49.558;8.674;2023-12-28T15:03:18;8.93;;;4.60;;
21769;SDS011;11046;49.558;8.674;2023-12-28T15:06:18;8.60;;;4.40;;
21769;SDS011;11046;49.558;8.674;2023-12-28T15:09:19;8.20;;;4.20;;
21769;SDS011;11046;49.558;8.674;2023-12-28T15:12:19;9.03;;;4.77;;
21769;SDS011;11046;49.558;8.674;2023-12-28T15:15:21;9.37;;;5.00;;
21769;SDS011;11046;49.558;8.674;2023-12-28T15:18:28;7.83;;;4.63;;
21769;SDS011;11046;49.558;8.674;2023-12-28T15:21:29;6.60;;;4.23;;
21769;SDS011;11046;49.558;8.674;2023-12-28T15:24:30;7.23;;;4.43;;
21769;SDS011;11046;49.558;8.674;2023-12-28T15:27:33;5.37;;;3.83;;
21769;SDS011;11046;49.558;8.674;2023-12-28T15:30:37;8.63;;;4.40;;
21769;SDS011;11046;49.558;8.674;2023-12-28T15:33:38;8.33;;;4.33;;
21769;SDS011;11046;49.558;8.674;2023-12-28T15:36:38;6.67;;;4.03;;
21769;SDS011;11046;49.558;8.674;2023-12-28T15:39:39;10.10;;;4.10;;
21769;SDS011;11046;49.558;8.674;2023-12-28T15:42:42;7.73;;;4.10;;
21769;SDS011;11046;49.558;8.674;2023-12-28T15:45:45;8.23;;;4.23;;
21769;SDS011;11046;49.558;8.674;2023-12-28T15:48:46;8.20;;;4.33;;
21769;SDS011;11046;49.558;8.674;2023-12-28T15:51:46;8.57;;;4.87;;
21769;SDS011;11046;49.558;8.674;2023-12-28T15:54:47;12.97;;;5.90;;
21769;SDS011;11046;49.558;8.674;2023-12-28T15:57:48;8.67;;;4.30;;
21769;SDS011;11046;49.558;8.674;2023-12-28T16:00:50;6.57;;;3.63;;
21769;SDS011;11046;49.558;8.674;2023-12-28T16:03:51;6.10;;;3.90;;
21769;SDS011;11046;49.558;8.674;2023-12-28T16:06:52;5.60;;;3.47;;
21769;SDS011;11046;49.558;8.674;2023-12-28T16:09:53;6.70;;;3.90;;
21769;SDS011;11046;49.558;8.674;2023-12-28T16:12:54;5.73;;;3.57;;
21769;SDS011;11046;49.558;8.674;2023-12-28T16:15:55;8.10;;;4.30;;
21769;SDS011;11046;49.558;8.674;2023-12-28T16:18:57;12.37;;;5.80;;
21769;SDS011;11046;49.558;8.674;2023-12-28T16:21:58;10.67;;;5.20;;
21769;SDS011;11046;49.558;8.674;2023-12-28T16:25:02;6.67;;;4.60;;
21769;SDS011;11046;49.558;8.674;2023-12-28T16:28:03;8.80;;;5.10;;
21769;SDS011;11046;49.558;8.674;2023-12-28T16:31:07;10.07;;;4.90;;
21769;SDS011;11046;49.558;8.674;2023-12-28T16:34:07;8.70;;;4.93;;
21769;SDS011;11046;49.558;8.674;2023-12-28T16:37:08;10.20;;;4.77;;
21769;SDS011;11046;49.558;8.674;2023-12-28T16:40:09;7.77;;;4.30;;
21769;SDS011;11046;49.558;8.674;2023-12-28T16:43:10;8.97;;;4.57;;
21769;SDS011;11046;49.558;8.674;2023-12-28T16:46:13;12.27;;;5.17;;
21769;SDS011;11046;49.558;8.674;2023-12-28T16:49:15;11.37;;;5.37;;
21769;SDS011;11046;49.558;8.674;2023-12-28T16:52:17;11.93;;;4.63;;
21769;SDS011;11046;49.558;8.674;2023-12-28T16:55:17;9.50;;;5.27;;
21769;SDS011;11046;49.558;8.674;2023-12-28T16:58:21;20.47;;;10.83;;
21769;SDS011;11046;49.558;8.674;2023-12-28T17:01:22;11.33;;;6.80;;
21769;SDS011;11046;49.558;8.674;2023-12-28T17:04:25;10.33;;;4.90;;
21769;SDS011;11046;49.558;8.674;2023-12-28T17:07:27;9.27;;;4.67;;
21769;SDS011;11046;49.558;8.674;2023-12-28T17:10:31;8.87;;;4.17;;
21769;SDS011;11046;49.558;8.674;2023-12-28T17:13:45;6.30;;;4.33;;
21769;SDS011;11046;49.558;8.674;2023-12-28T17:16:46;6.47;;;4.57;;
21769;SDS011;11046;49.558;8.674;2023-12-28T17:19:51;9.43;;;4.23;;
21769;SDS011;11046;49.558;8.674;2023-12-28T17:22:53;9.93;;;4.93;;
21769;SDS011;11046;49.558;8.674;2023-12-28T17:32:06;10.60;;;5.27;;
21769;SDS011;11046;49.558;8.674;2023-12-28T17:35:11;6.93;;;4.53;;
21769;SDS011;11046;49.558;8.674;2023-12-28T17:38:12;7.37;;;4.50;;
21769;SDS011;11046;49.558;8.674;2023-12-28T17:41:14;6.70;;;4.67;;
21769;SDS011;11046;49.558;8.674;2023-12-28T17:44:22;13.83;;;5.83;;
21769;SDS011;11046;49.558;8.674;2023-12-28T17:47:36;9.53;;;5.67;;
21769;SDS011;11046;49.558;8.674;2023-12-28T17:50:49;10.13;;;4.80;;
21769;SDS011;11046;49.558;8.674;2023-12-28T17:53:51;9.93;;;5.10;;
21769;SDS011;11046;49.558;8.674;2023-12-28T17:56:52;7.90;;;5.20;;
21769;SDS011;11046;49.558;8.674;2023-12-28T17:59:56;9.73;;;5.47;;
21769;SDS011;11046;49.558;8.674;2023-12-28T18:02:56;9.03;;;5.10;;
21769;SDS011;11046;49.558;8.674;2023-12-28T18:05:57;8.83;;;4.67;;
21769;SDS011;11046;49.558;8.674;2023-12-28T18:08:58;9.00;;;5.30;;
21769;SDS011;11046;49.558;8.674;2023-12-28T18:11:58;10.60;;;5.63;;
21769;SDS011;11046;49.558;8.674;2023-12-28T18:14:59;7.80;;;5.03;;
21769;SDS011;11046;49.558;8.674;2023-12-28T18:17:59;8.77;;;5.37;;
21769;SDS011;11046;49.558;8.674;2023-12-28T18:21:00;11.10;;;5.10;;
21769;SDS011;11046;49.558;8.674;2023-12-28T18:24:01;10.90;;;5.50;;
21769;SDS011;11046;49.558;8.674;2023-12-28T18:27:02;10.47;;;6.10;;